No particular awareness of the weather is required.    There are no Weather-warnings


Meteo18 Weather Cam more information Meteo18 Weather Cam


Thunder radar more information blitzortung!


Rain radar more information rain snow radar


Visit our other weather sites:

Template documentation
and downloads

And another site



Weather Underground History page Text

Daily Summary for March 3, 2017 Units:  Both    English   Metric
« Previous Day
Next Day »
Daily Weekly Monthly Yearly Custom
  High: Low: Average:
Temperature: 62.2 °F /  16.8 °C 41.4 °F /  5.2 °C 50.9 °F /  10.5 °C
Dew Point: 49.5 °F /  9.7 °C 36.1 °F /  2.3 °C 42.4 °F /  5.8 °C
Humidity: 87 % 59 % 73 %
Wind Speed: 15 mph /  24.1 km/h - 3.2 mph /  5.2 km/h
Wind Gust: 19 mph /  30.6 km/h - -
Wind:- - SE
Pressure: 30 in /  1015.5 hPa 29.4 in /  996.8 hPa -
Precipitation: 0 in /  0.0 mm    
Historical Graphs
 
 
Tabular Data for March 3, 2017
Time Temperature Dew Point Pressure Wind Wind Speed Wind Gust Humidity Rainfall Rate (Hourly)
00:02 42.8 °F /  6.0 °C 36.7 °F /  2.6 °C 30 in /  1015.5 hPa North 1 mph /  1.6 km/h 2 mph /  3.2 km/h 79 % 0 in /  0.0 mm
00:07 42.6 °F /  5.9 °C 36.5 °F /  2.5 °C 30 in /  1015.5 hPa Calm   2 mph /  3.2 km/h 79 % 0 in /  0.0 mm
00:12 42.8 °F /  6.0 °C 36.7 °F /  2.6 °C 30 in /  1015.5 hPa NNE 1 mph /  1.6 km/h 2 mph /  3.2 km/h 79 % 0 in /  0.0 mm
00:17 43 °F /  6.1 °C 36.3 °F /  2.4 °C 30 in /  1015.5 hPa NE 1 mph /  1.6 km/h 2 mph /  3.2 km/h 77 % 0 in /  0.0 mm
00:22 43.5 °F /  6.4 °C 36.1 °F /  2.3 °C 30 in /  1015.1 hPa NE 2 mph /  3.2 km/h 2 mph /  3.2 km/h 75 % 0 in /  0.0 mm
00:27 43.9 °F /  6.6 °C 36.1 °F /  2.3 °C 30 in /  1015.1 hPa Calm   2 mph /  3.2 km/h 74 % 0 in /  0.0 mm
00:32 43.9 °F /  6.6 °C 36.1 °F /  2.3 °C 30 in /  1015.1 hPa Calm   2 mph /  3.2 km/h 74 % 0 in /  0.0 mm
00:42 43.5 °F /  6.4 °C 36.5 °F /  2.5 °C 30 in /  1014.8 hPa Calm   1 mph /  1.6 km/h 76 % 0 in /  0.0 mm
00:47 43.7 °F /  6.5 °C 36.7 °F /  2.6 °C 30 in /  1014.8 hPa Calm   1 mph /  1.6 km/h 76 % 0 in /  0.0 mm
00:52 43.3 °F /  6.3 °C 36.9 °F /  2.7 °C 30 in /  1014.8 hPa Calm   1 mph /  1.6 km/h 78 % 0 in /  0.0 mm
01:02 43.2 °F /  6.2 °C 36.7 °F /  2.6 °C 30 in /  1014.4 hPa Calm   1 mph /  1.6 km/h 78 % 0 in /  0.0 mm
01:07 43.2 °F /  6.2 °C 37 °F /  2.8 °C 30 in /  1014.4 hPa Calm   1 mph /  1.6 km/h 79 % 0 in /  0.0 mm
01:12 43.2 °F /  6.2 °C 37 °F /  2.8 °C 30 in /  1014.8 hPa Calm   1 mph /  1.6 km/h 79 % 0 in /  0.0 mm
01:17 43.3 °F /  6.3 °C 36.9 °F /  2.7 °C 30 in /  1014.4 hPa Calm   1 mph /  1.6 km/h 78 % 0 in /  0.0 mm
01:22 43.5 °F /  6.4 °C 36.9 °F /  2.7 °C 30 in /  1014.4 hPa Calm   1 mph /  1.6 km/h 77 % 0 in /  0.0 mm
01:27 43.9 °F /  6.6 °C 37.2 °F /  2.9 °C 30 in /  1014.4 hPa Calm   1 mph /  1.6 km/h 77 % 0 in /  0.0 mm
01:32 44.1 °F /  6.7 °C 37 °F /  2.8 °C 30 in /  1014.4 hPa Calm   2 mph /  3.2 km/h 76 % 0 in /  0.0 mm
01:37 44.2 °F /  6.8 °C 37.6 °F /  3.1 °C 30 in /  1014.4 hPa Calm   3 mph /  4.8 km/h 77 % 0 in /  0.0 mm
01:42 44.2 °F /  6.8 °C 37.6 °F /  3.1 °C 30 in /  1014.4 hPa Calm   3 mph /  4.8 km/h 77 % 0 in /  0.0 mm
01:47 44.2 °F /  6.8 °C 37.8 °F /  3.2 °C 30 in /  1014.4 hPa Calm   2 mph /  3.2 km/h 78 % 0 in /  0.0 mm
01:52 43.9 °F /  6.6 °C 37.8 °F /  3.2 °C 30 in /  1014.4 hPa Calm   2 mph /  3.2 km/h 79 % 0 in /  0.0 mm
01:57 43.5 °F /  6.4 °C 37.4 °F /  3.0 °C 29.9 in /  1014.1 hPa Calm   1 mph /  1.6 km/h 79 % 0 in /  0.0 mm
02:02 43.7 °F /  6.5 °C 37.2 °F /  2.9 °C 29.9 in /  1014.1 hPa NNE 1 mph /  1.6 km/h 1 mph /  1.6 km/h 78 % 0 in /  0.0 mm
02:07 43.5 °F /  6.4 °C 37.8 °F /  3.2 °C 29.9 in /  1013.8 hPa Calm   2 mph /  3.2 km/h 80 % 0 in /  0.0 mm
02:12 43.3 °F /  6.3 °C 37.6 °F /  3.1 °C 29.9 in /  1013.8 hPa NNE 1 mph /  1.6 km/h 2 mph /  3.2 km/h 80 % 0 in /  0.0 mm
02:17 43 °F /  6.1 °C 37.6 °F /  3.1 °C 29.9 in /  1013.8 hPa Calm   2 mph /  3.2 km/h 81 % 0 in /  0.0 mm
02:22 42.8 °F /  6.0 °C 37 °F /  2.8 °C 29.9 in /  1013.4 hPa Calm   2 mph /  3.2 km/h 80 % 0 in /  0.0 mm
02:27 43.2 °F /  6.2 °C 37.4 °F /  3.0 °C 29.9 in /  1013.4 hPa Calm   2 mph /  3.2 km/h 80 % 0 in /  0.0 mm
02:32 43.2 °F /  6.2 °C 37.4 °F /  3.0 °C 29.9 in /  1013.4 hPa Calm   1 mph /  1.6 km/h 80 % 0 in /  0.0 mm
02:37 43.3 °F /  6.3 °C 37.6 °F /  3.1 °C 29.9 in /  1013.1 hPa Calm   1 mph /  1.6 km/h 80 % 0 in /  0.0 mm
02:42 43 °F /  6.1 °C 37.6 °F /  3.1 °C 29.9 in /  1013.1 hPa Calm   1 mph /  1.6 km/h 81 % 0 in /  0.0 mm
02:47 42.4 °F /  5.8 °C 37.6 °F /  3.1 °C 29.9 in /  1013.1 hPa Calm   1 mph /  1.6 km/h 83 % 0 in /  0.0 mm
02:52 42.3 °F /  5.7 °C 37.4 °F /  3.0 °C 29.9 in /  1012.8 hPa Calm   1 mph /  1.6 km/h 83 % 0 in /  0.0 mm
02:57 42.4 °F /  5.8 °C 37.4 °F /  3.0 °C 29.9 in /  1012.8 hPa Calm   1 mph /  1.6 km/h 82 % 0 in /  0.0 mm
03:02 42.4 °F /  5.8 °C 37.4 °F /  3.0 °C 29.9 in /  1012.8 hPa Calm   1 mph /  1.6 km/h 82 % 0 in /  0.0 mm
03:07 42.3 °F /  5.7 °C 37.2 °F /  2.9 °C 29.9 in /  1012.8 hPa Calm   1 mph /  1.6 km/h 82 % 0 in /  0.0 mm
03:12 42.4 °F /  5.8 °C 37.4 °F /  3.0 °C 29.9 in /  1012.8 hPa Calm   1 mph /  1.6 km/h 82 % 0 in /  0.0 mm
03:17 42.6 °F /  5.9 °C 37.6 °F /  3.1 °C 29.9 in /  1012.8 hPa Calm   1 mph /  1.6 km/h 82 % 0 in /  0.0 mm
03:22 43 °F /  6.1 °C 37.9 °F /  3.3 °C 29.9 in /  1012.8 hPa Calm   1 mph /  1.6 km/h 82 % 0 in /  0.0 mm
03:27 43 °F /  6.1 °C 37.6 °F /  3.1 °C 29.9 in /  1012.4 hPa Calm   1 mph /  1.6 km/h 81 % 0 in /  0.0 mm
03:32 42.8 °F /  6.0 °C 37.4 °F /  3.0 °C 29.9 in /  1012.4 hPa Calm   1 mph /  1.6 km/h 81 % 0 in /  0.0 mm
03:37 43 °F /  6.1 °C 37.6 °F /  3.1 °C 29.9 in /  1012.1 hPa Calm   1 mph /  1.6 km/h 81 % 0 in /  0.0 mm
03:42 42.8 °F /  6.0 °C 37.8 °F /  3.2 °C 29.9 in /  1012.1 hPa Calm   2 mph /  3.2 km/h 82 % 0 in /  0.0 mm
03:47 42.6 °F /  5.9 °C 37.6 °F /  3.1 °C 29.9 in /  1012.1 hPa Calm   2 mph /  3.2 km/h 82 % 0 in /  0.0 mm
03:52 42.6 °F /  5.9 °C 37.6 °F /  3.1 °C 29.9 in /  1012.1 hPa Calm   2 mph /  3.2 km/h 82 % 0 in /  0.0 mm
03:57 42.8 °F /  6.0 °C 37.8 °F /  3.2 °C 29.9 in /  1012.1 hPa Calm   1 mph /  1.6 km/h 82 % 0 in /  0.0 mm
04:02 42.8 °F /  6.0 °C 37.9 °F /  3.3 °C 29.9 in /  1012.1 hPa Calm   1 mph /  1.6 km/h 83 % 0 in /  0.0 mm
04:07 42.8 °F /  6.0 °C 37.9 °F /  3.3 °C 29.9 in /  1011.7 hPa Calm   1 mph /  1.6 km/h 83 % 0 in /  0.0 mm
04:12 43 °F /  6.1 °C 38.1 °F /  3.4 °C 29.9 in /  1011.7 hPa Calm   1 mph /  1.6 km/h 83 % 0 in /  0.0 mm
04:17 42.6 °F /  5.9 °C 37.8 °F /  3.2 °C 29.9 in /  1011.7 hPa Calm   1 mph /  1.6 km/h 83 % 0 in /  0.0 mm
04:22 42.6 °F /  5.9 °C 37.8 °F /  3.2 °C 29.9 in /  1011.7 hPa Calm   1 mph /  1.6 km/h 83 % 0 in /  0.0 mm
04:32 43 °F /  6.1 °C 38.1 °F /  3.4 °C 29.9 in /  1011.4 hPa Calm   1 mph /  1.6 km/h 83 % 0 in /  0.0 mm
04:37 43 °F /  6.1 °C 38.1 °F /  3.4 °C 29.9 in /  1011.4 hPa Calm   1 mph /  1.6 km/h 83 % 0 in /  0.0 mm
04:42 42.4 °F /  5.8 °C 37.6 °F /  3.1 °C 29.9 in /  1011.4 hPa Calm   1 mph /  1.6 km/h 83 % 0 in /  0.0 mm
04:47 42.1 °F /  5.6 °C 37.6 °F /  3.1 °C 29.9 in /  1011.4 hPa Calm   1 mph /  1.6 km/h 84 % 0 in /  0.0 mm
04:52 42.1 °F /  5.6 °C 37.6 °F /  3.1 °C 29.9 in /  1011.1 hPa Calm     84 % 0 in /  0.0 mm
04:57 42.1 °F /  5.6 °C 37.9 °F /  3.3 °C 29.9 in /  1011.1 hPa Calm   1 mph /  1.6 km/h 85 % 0 in /  0.0 mm
05:02 42.1 °F /  5.6 °C 37.9 °F /  3.3 °C 29.9 in /  1011.1 hPa Calm   1 mph /  1.6 km/h 85 % 0 in /  0.0 mm
05:12 42.3 °F /  5.7 °C 37.8 °F /  3.2 °C 29.8 in /  1010.7 hPa Calm   1 mph /  1.6 km/h 84 % 0 in /  0.0 mm
05:17 41.9 °F /  5.5 °C 37.8 °F /  3.2 °C 29.8 in /  1010.7 hPa Calm   1 mph /  1.6 km/h 85 % 0 in /  0.0 mm
05:22 41.7 °F /  5.4 °C 37.6 °F /  3.1 °C 29.8 in /  1010.7 hPa Calm     85 % 0 in /  0.0 mm
05:32 41.5 °F /  5.3 °C 37.4 °F /  3.0 °C 29.8 in /  1010.4 hPa Calm   2 mph /  3.2 km/h 85 % 0 in /  0.0 mm
05:37 41.4 °F /  5.2 °C 37.6 °F /  3.1 °C 29.8 in /  1010.0 hPa Calm   2 mph /  3.2 km/h 86 % 0 in /  0.0 mm
05:42 41.9 °F /  5.5 °C 37.9 °F /  3.3 °C 29.8 in /  1010.0 hPa SSE 1 mph /  1.6 km/h 3 mph /  4.8 km/h 86 % 0 in /  0.0 mm
05:47 42.1 °F /  5.6 °C 38.1 °F /  3.4 °C 29.8 in /  1010.0 hPa SE 2 mph /  3.2 km/h 4 mph /  6.4 km/h 86 % 0 in /  0.0 mm
05:52 42.3 °F /  5.7 °C 38.3 °F /  3.5 °C 29.8 in /  1010.0 hPa East 1 mph /  1.6 km/h 4 mph /  6.4 km/h 86 % 0 in /  0.0 mm
05:57 42.4 °F /  5.8 °C 38.3 °F /  3.5 °C 29.8 in /  1010.0 hPa ESE 1 mph /  1.6 km/h 4 mph /  6.4 km/h 85 % 0 in /  0.0 mm
06:02 42.3 °F /  5.7 °C 38.1 °F /  3.4 °C 29.8 in /  1010.0 hPa Calm   3 mph /  4.8 km/h 85 % 0 in /  0.0 mm
06:12 41.7 °F /  5.4 °C 37.8 °F /  3.2 °C 29.8 in /  1009.7 hPa Calm   2 mph /  3.2 km/h 86 % 0 in /  0.0 mm
06:17 41.5 °F /  5.3 °C 37.6 °F /  3.1 °C 29.8 in /  1009.7 hPa Calm   1 mph /  1.6 km/h 86 % 0 in /  0.0 mm
06:22 41.7 °F /  5.4 °C 38.1 °F /  3.4 °C 29.8 in /  1009.7 hPa Calm   1 mph /  1.6 km/h 87 % 0 in /  0.0 mm
06:27 41.7 °F /  5.4 °C 38.1 °F /  3.4 °C 29.8 in /  1009.4 hPa Calm   1 mph /  1.6 km/h 87 % 0 in /  0.0 mm
06:32 41.9 °F /  5.5 °C 38.3 °F /  3.5 °C 29.8 in /  1009.4 hPa Calm   1 mph /  1.6 km/h 87 % 0 in /  0.0 mm
06:37 42.3 °F /  5.7 °C 38.7 °F /  3.7 °C 29.8 in /  1009.4 hPa Calm   4 mph /  6.4 km/h 87 % 0 in /  0.0 mm
06:42 42.6 °F /  5.9 °C 38.7 °F /  3.7 °C 29.8 in /  1009.4 hPa Calm   4 mph /  6.4 km/h 86 % 0 in /  0.0 mm
06:47 42.8 °F /  6.0 °C 38.7 °F /  3.7 °C 29.8 in /  1009.4 hPa Calm   4 mph /  6.4 km/h 85 % 0 in /  0.0 mm
06:52 42.6 °F /  5.9 °C 38.5 °F /  3.6 °C 29.8 in /  1009.4 hPa Calm   1 mph /  1.6 km/h 85 % 0 in /  0.0 mm
07:02 43 °F /  6.1 °C 38.8 °F /  3.8 °C 29.8 in /  1008.7 hPa Calm   2 mph /  3.2 km/h 85 % 0 in /  0.0 mm
07:07 42.8 °F /  6.0 °C 38.7 °F /  3.7 °C 29.8 in /  1008.7 hPa Calm   2 mph /  3.2 km/h 85 % 0 in /  0.0 mm
07:12 42.6 °F /  5.9 °C 38.5 °F /  3.6 °C 29.8 in /  1008.7 hPa Calm   2 mph /  3.2 km/h 85 % 0 in /  0.0 mm
07:17 42.3 °F /  5.7 °C 38.3 °F /  3.5 °C 29.8 in /  1008.7 hPa Calm   2 mph /  3.2 km/h 86 % 0 in /  0.0 mm
07:22 42.3 °F /  5.7 °C 38.7 °F /  3.7 °C 29.8 in /  1008.4 hPa Calm   1 mph /  1.6 km/h 87 % 0 in /  0.0 mm
07:27 42.4 °F /  5.8 °C 38.5 °F /  3.6 °C 29.8 in /  1008.4 hPa Calm   1 mph /  1.6 km/h 86 % 0 in /  0.0 mm
07:32 42.6 °F /  5.9 °C 38.7 °F /  3.7 °C 29.8 in /  1008.4 hPa Calm   3 mph /  4.8 km/h 86 % 0 in /  0.0 mm
07:37 42.4 °F /  5.8 °C 38.3 °F /  3.5 °C 29.8 in /  1008.4 hPa Calm   3 mph /  4.8 km/h 85 % 0 in /  0.0 mm
07:42 42.4 °F /  5.8 °C 38.5 °F /  3.6 °C 29.8 in /  1008.4 hPa Calm   3 mph /  4.8 km/h 86 % 0 in /  0.0 mm
07:47 43 °F /  6.1 °C 38.8 °F /  3.8 °C 29.8 in /  1008.4 hPa WNW 1 mph /  1.6 km/h 1 mph /  1.6 km/h 85 % 0 in /  0.0 mm
07:52 43.2 °F /  6.2 °C 38.7 °F /  3.7 °C 29.8 in /  1008.4 hPa Calm   1 mph /  1.6 km/h 84 % 0 in /  0.0 mm
07:57 43.2 °F /  6.2 °C 38.7 °F /  3.7 °C 29.8 in /  1008.0 hPa Calm   1 mph /  1.6 km/h 84 % 0 in /  0.0 mm
08:02 43.3 °F /  6.3 °C 38.8 °F /  3.8 °C 29.8 in /  1008.0 hPa Calm   1 mph /  1.6 km/h 84 % 0 in /  0.0 mm
08:07 43.3 °F /  6.3 °C 38.8 °F /  3.8 °C 29.8 in /  1008.0 hPa Calm   1 mph /  1.6 km/h 84 % 0 in /  0.0 mm
08:12 43.5 °F /  6.4 °C 38.7 °F /  3.7 °C 29.8 in /  1008.0 hPa Calm   1 mph /  1.6 km/h 83 % 0 in /  0.0 mm
08:17 43.5 °F /  6.4 °C 38.7 °F /  3.7 °C 29.8 in /  1008.0 hPa Calm   1 mph /  1.6 km/h 83 % 0 in /  0.0 mm
08:22 43.5 °F /  6.4 °C 39 °F /  3.9 °C 29.8 in /  1007.7 hPa Calm   1 mph /  1.6 km/h 84 % 0 in /  0.0 mm
08:27 43.5 °F /  6.4 °C 39 °F /  3.9 °C 29.8 in /  1007.7 hPa Calm   1 mph /  1.6 km/h 84 % 0 in /  0.0 mm
08:32 44.1 °F /  6.7 °C 39.2 °F /  4.0 °C 29.8 in /  1007.7 hPa Calm   1 mph /  1.6 km/h 83 % 0 in /  0.0 mm
08:37 44.4 °F /  6.9 °C 39.6 °F /  4.2 °C 29.8 in /  1007.7 hPa Calm   1 mph /  1.6 km/h 83 % 0 in /  0.0 mm
08:42 45 °F /  7.2 °C 40.1 °F /  4.5 °C 29.7 in /  1007.3 hPa Calm   1 mph /  1.6 km/h 83 % 0 in /  0.0 mm
08:47 45.3 °F /  7.4 °C 39.9 °F /  4.4 °C 29.7 in /  1007.3 hPa Calm   2 mph /  3.2 km/h 81 % 0 in /  0.0 mm
08:52 45.9 °F /  7.7 °C 40.3 °F /  4.6 °C 29.7 in /  1007.3 hPa Calm   2 mph /  3.2 km/h 81 % 0 in /  0.0 mm
08:57 46 °F /  7.8 °C 40.5 °F /  4.7 °C 29.7 in /  1007.3 hPa Calm   2 mph /  3.2 km/h 81 % 0 in /  0.0 mm
09:02 46.2 °F /  7.9 °C 40.6 °F /  4.8 °C 29.7 in /  1007.3 hPa Calm   2 mph /  3.2 km/h 81 % 0 in /  0.0 mm
09:12 46.8 °F /  8.2 °C 41 °F /  5.0 °C 29.7 in /  1007.0 hPa Calm   3 mph /  4.8 km/h 80 % 0 in /  0.0 mm
09:17 46.9 °F /  8.3 °C 41.2 °F /  5.1 °C 29.7 in /  1007.0 hPa Calm   3 mph /  4.8 km/h 80 % 0 in /  0.0 mm
09:22 47.1 °F /  8.4 °C 41.4 °F /  5.2 °C 29.7 in /  1007.0 hPa Calm   2 mph /  3.2 km/h 80 % 0 in /  0.0 mm
09:27 47.5 °F /  8.6 °C 41.5 °F /  5.3 °C 29.7 in /  1007.0 hPa Calm   1 mph /  1.6 km/h 80 % 0 in /  0.0 mm
09:32 47.7 °F /  8.7 °C 41.5 °F /  5.3 °C 29.7 in /  1006.7 hPa Calm   1 mph /  1.6 km/h 79 % 0 in /  0.0 mm
09:37 47.8 °F /  8.8 °C 41.9 °F /  5.5 °C 29.7 in /  1006.7 hPa SSE 1 mph /  1.6 km/h 1 mph /  1.6 km/h 80 % 0 in /  0.0 mm
09:42 47.8 °F /  8.8 °C 41.7 °F /  5.4 °C 29.7 in /  1006.7 hPa SE 1 mph /  1.6 km/h 2 mph /  3.2 km/h 79 % 0 in /  0.0 mm
09:47 48 °F /  8.9 °C 41.9 °F /  5.5 °C 29.7 in /  1006.7 hPa SE 1 mph /  1.6 km/h 3 mph /  4.8 km/h 79 % 0 in /  0.0 mm
09:52 48 °F /  8.9 °C 41.9 °F /  5.5 °C 29.7 in /  1006.7 hPa SE 2 mph /  3.2 km/h 3 mph /  4.8 km/h 79 % 0 in /  0.0 mm
09:57 48.4 °F /  9.1 °C 42.3 °F /  5.7 °C 29.7 in /  1006.3 hPa SE 2 mph /  3.2 km/h 3 mph /  4.8 km/h 79 % 0 in /  0.0 mm
10:02 48.6 °F /  9.2 °C 42.1 °F /  5.6 °C 29.7 in /  1006.3 hPa SE 4 mph /  6.4 km/h 4 mph /  6.4 km/h 78 % 0 in /  0.0 mm
10:12 48.9 °F /  9.4 °C 42.6 °F /  5.9 °C 29.7 in /  1006.0 hPa SE 3 mph /  4.8 km/h 6 mph /  9.7 km/h 79 % 0 in /  0.0 mm
10:17 49.1 °F /  9.5 °C 42.6 °F /  5.9 °C 29.7 in /  1006.0 hPa ESE 6 mph /  9.7 km/h 6 mph /  9.7 km/h 78 % 0 in /  0.0 mm
10:22 49.1 °F /  9.5 °C 42.3 °F /  5.7 °C 29.7 in /  1006.0 hPa East 4 mph /  6.4 km/h 6 mph /  9.7 km/h 77 % 0 in /  0.0 mm
10:27 49.3 °F /  9.6 °C 42.4 °F /  5.8 °C 29.7 in /  1006.0 hPa SE 4 mph /  6.4 km/h 6 mph /  9.7 km/h 77 % 0 in /  0.0 mm
10:32 49.3 °F /  9.6 °C 42.8 °F /  6.0 °C 29.7 in /  1006.0 hPa SSE 1 mph /  1.6 km/h 7 mph /  11.3 km/h 78 % 0 in /  0.0 mm
10:37 49.5 °F /  9.7 °C 42.8 °F /  6.0 °C 29.7 in /  1006.0 hPa SE 3 mph /  4.8 km/h 9 mph /  14.5 km/h 78 % 0 in /  0.0 mm
10:42 49.6 °F /  9.8 °C 42.8 °F /  6.0 °C 29.7 in /  1005.6 hPa SE 2 mph /  3.2 km/h 9 mph /  14.5 km/h 77 % 0 in /  0.0 mm
10:52 50 °F /  10.0 °C 43.2 °F /  6.2 °C 29.7 in /  1005.6 hPa South 3 mph /  4.8 km/h 5 mph /  8.0 km/h 77 % 0 in /  0.0 mm
10:57 50.2 °F /  10.1 °C 43 °F /  6.1 °C 29.7 in /  1005.6 hPa ESE 3 mph /  4.8 km/h 6 mph /  9.7 km/h 76 % 0 in /  0.0 mm
11:02 50.5 °F /  10.3 °C 43.3 °F /  6.3 °C 29.7 in /  1005.6 hPa SE 2 mph /  3.2 km/h 6 mph /  9.7 km/h 76 % 0 in /  0.0 mm
11:07 50.7 °F /  10.4 °C 43.2 °F /  6.2 °C 29.7 in /  1005.3 hPa SE 1 mph /  1.6 km/h 6 mph /  9.7 km/h 75 % 0 in /  0.0 mm
11:12 51.1 °F /  10.6 °C 43.7 °F /  6.5 °C 29.7 in /  1005.3 hPa ESE 1 mph /  1.6 km/h 8 mph /  12.9 km/h 76 % 0 in /  0.0 mm
11:17 51.4 °F /  10.8 °C 43.7 °F /  6.5 °C 29.7 in /  1005.0 hPa ESE 3 mph /  4.8 km/h 8 mph /  12.9 km/h 75 % 0 in /  0.0 mm
11:22 51.8 °F /  11.0 °C 43.7 °F /  6.5 °C 29.7 in /  1005.3 hPa SE 3 mph /  4.8 km/h 5 mph /  8.0 km/h 74 % 0 in /  0.0 mm
11:27 52.2 °F /  11.2 °C 44.4 °F /  6.9 °C 29.7 in /  1005.0 hPa ESE 4 mph /  6.4 km/h 4 mph /  6.4 km/h 75 % 0 in /  0.0 mm
11:32 52.3 °F /  11.3 °C 43.9 °F /  6.6 °C 29.7 in /  1005.0 hPa SE 3 mph /  4.8 km/h 4 mph /  6.4 km/h 73 % 0 in /  0.0 mm
11:37 52.5 °F /  11.4 °C 44.1 °F /  6.7 °C 29.7 in /  1004.6 hPa ESE 3 mph /  4.8 km/h 6 mph /  9.7 km/h 73 % 0 in /  0.0 mm
11:42 52.9 °F /  11.6 °C 44.8 °F /  7.1 °C 29.7 in /  1004.6 hPa SE 3 mph /  4.8 km/h 7 mph /  11.3 km/h 74 % 0 in /  0.0 mm
11:47 53.1 °F /  11.7 °C 44.6 °F /  7.0 °C 29.7 in /  1004.6 hPa SE 2 mph /  3.2 km/h 7 mph /  11.3 km/h 73 % 0 in /  0.0 mm
11:52 53.4 °F /  11.9 °C 45 °F /  7.2 °C 29.7 in /  1004.6 hPa ESE 2 mph /  3.2 km/h 7 mph /  11.3 km/h 73 % 0 in /  0.0 mm
11:57 53.8 °F /  12.1 °C 45.7 °F /  7.6 °C 29.7 in /  1004.3 hPa SE 1 mph /  1.6 km/h 7 mph /  11.3 km/h 74 % 0 in /  0.0 mm
12:02 54.1 °F /  12.3 °C 45.3 °F /  7.4 °C 29.7 in /  1004.3 hPa ESE 4 mph /  6.4 km/h 6 mph /  9.7 km/h 72 % 0 in /  0.0 mm
12:07 54.3 °F /  12.4 °C 46.2 °F /  7.9 °C 29.7 in /  1004.3 hPa SE 2 mph /  3.2 km/h 8 mph /  12.9 km/h 74 % 0 in /  0.0 mm
12:12 54.7 °F /  12.6 °C 46.2 °F /  7.9 °C 29.7 in /  1004.3 hPa SE 2 mph /  3.2 km/h 8 mph /  12.9 km/h 73 % 0 in /  0.0 mm
12:17 55 °F /  12.8 °C 46.9 °F /  8.3 °C 29.6 in /  1003.9 hPa East 3 mph /  4.8 km/h 8 mph /  12.9 km/h 74 % 0 in /  0.0 mm
12:22 55.4 °F /  13.0 °C 46.9 °F /  8.3 °C 29.6 in /  1003.9 hPa East 4 mph /  6.4 km/h 6 mph /  9.7 km/h 73 % 0 in /  0.0 mm
12:27 55.2 °F /  12.9 °C 46 °F /  7.8 °C 29.6 in /  1003.9 hPa ESE 2 mph /  3.2 km/h 6 mph /  9.7 km/h 71 % 0 in /  0.0 mm
12:32 55.4 °F /  13.0 °C 46.6 °F /  8.1 °C 29.6 in /  1003.9 hPa ENE 5 mph /  8.0 km/h 8 mph /  12.9 km/h 72 % 0 in /  0.0 mm
12:42 55.9 °F /  13.3 °C 45.9 °F /  7.7 °C 29.6 in /  1003.6 hPa ESE 4 mph /  6.4 km/h 11 mph /  17.7 km/h 69 % 0 in /  0.0 mm
12:47 56.1 °F /  13.4 °C 46 °F /  7.8 °C 29.6 in /  1003.3 hPa East 5 mph /  8.0 km/h 11 mph /  17.7 km/h 69 % 0 in /  0.0 mm
12:52 56.5 °F /  13.6 °C 47.1 °F /  8.4 °C 29.6 in /  1003.3 hPa ESE 5 mph /  8.0 km/h 12 mph /  19.3 km/h 71 % 0 in /  0.0 mm
12:57 56.5 °F /  13.6 °C 46.4 °F /  8.0 °C 29.6 in /  1003.3 hPa SE 6 mph /  9.7 km/h 12 mph /  19.3 km/h 69 % 0 in /  0.0 mm
13:02 56.7 °F /  13.7 °C 47.3 °F /  8.5 °C 29.6 in /  1003.3 hPa SE 8 mph /  12.9 km/h 12 mph /  19.3 km/h 71 % 0 in /  0.0 mm
13:07 56.8 °F /  13.8 °C 47.1 °F /  8.4 °C 29.6 in /  1002.9 hPa SE 7 mph /  11.3 km/h 11 mph /  17.7 km/h 70 % 0 in /  0.0 mm
13:12 57 °F /  13.9 °C 48 °F /  8.9 °C 29.6 in /  1002.9 hPa SE 5 mph /  8.0 km/h 10 mph /  16.1 km/h 72 % 0 in /  0.0 mm
13:17 57.4 °F /  14.1 °C 47.7 °F /  8.7 °C 29.6 in /  1002.9 hPa SE 3 mph /  4.8 km/h 10 mph /  16.1 km/h 70 % 0 in /  0.0 mm
13:22 57.7 °F /  14.3 °C 48.4 °F /  9.1 °C 29.6 in /  1002.9 hPa SE 5 mph /  8.0 km/h 10 mph /  16.1 km/h 71 % 0 in /  0.0 mm
13:27 57.9 °F /  14.4 °C 48.2 °F /  9.0 °C 29.6 in /  1002.6 hPa SE 4 mph /  6.4 km/h 10 mph /  16.1 km/h 70 % 0 in /  0.0 mm
13:32 58.3 °F /  14.6 °C 47.8 °F /  8.8 °C 29.6 in /  1002.6 hPa SE 6 mph /  9.7 km/h 9 mph /  14.5 km/h 68 % 0 in /  0.0 mm
13:37 58.8 °F /  14.9 °C 48.2 °F /  9.0 °C 29.6 in /  1002.6 hPa SE 3 mph /  4.8 km/h 9 mph /  14.5 km/h 68 % 0 in /  0.0 mm
13:42 59.2 °F /  15.1 °C 49.1 °F /  9.5 °C 29.6 in /  1002.3 hPa SE 3 mph /  4.8 km/h 8 mph /  12.9 km/h 69 % 0 in /  0.0 mm
13:47 59.7 °F /  15.4 °C 48.7 °F /  9.3 °C 29.6 in /  1002.3 hPa SSE 4 mph /  6.4 km/h 8 mph /  12.9 km/h 67 % 0 in /  0.0 mm
13:52 60.1 °F /  15.6 °C 46.9 °F /  8.3 °C 29.6 in /  1001.9 hPa SE 6 mph /  9.7 km/h 10 mph /  16.1 km/h 62 % 0 in /  0.0 mm
13:57 60.4 °F /  15.8 °C 47.3 °F /  8.5 °C 29.6 in /  1001.9 hPa SSE 6 mph /  9.7 km/h 15 mph /  24.1 km/h 62 % 0 in /  0.0 mm
14:02 60.4 °F /  15.8 °C 47.3 °F /  8.5 °C 29.6 in /  1001.9 hPa SE 8 mph /  12.9 km/h 15 mph /  24.1 km/h 62 % 0 in /  0.0 mm
14:07 60.6 °F /  15.9 °C 47.1 °F /  8.4 °C 29.6 in /  1001.9 hPa SE 5 mph /  8.0 km/h 17 mph /  27.4 km/h 61 % 0 in /  0.0 mm
14:12 60.8 °F /  16.0 °C 48.2 °F /  9.0 °C 29.6 in /  1001.9 hPa SE 5 mph /  8.0 km/h 17 mph /  27.4 km/h 63 % 0 in /  0.0 mm
14:22 61.3 °F /  16.3 °C 48.2 °F /  9.0 °C 29.6 in /  1001.6 hPa SE 6 mph /  9.7 km/h 11 mph /  17.7 km/h 62 % 0 in /  0.0 mm
14:27 61.3 °F /  16.3 °C 47.3 °F /  8.5 °C 29.6 in /  1001.6 hPa SSE 8 mph /  12.9 km/h 13 mph /  20.9 km/h 60 % 0 in /  0.0 mm
14:32 61.3 °F /  16.3 °C 48.6 °F /  9.2 °C 29.6 in /  1001.2 hPa SE 5 mph /  8.0 km/h 13 mph /  20.9 km/h 63 % 0 in /  0.0 mm
14:37 61.3 °F /  16.3 °C 47.8 °F /  8.8 °C 29.6 in /  1001.2 hPa SE 12 mph /  19.3 km/h 14 mph /  22.5 km/h 61 % 0 in /  0.0 mm
14:42 61.3 °F /  16.3 °C 46.9 °F /  8.3 °C 29.6 in /  1000.9 hPa SE 5 mph /  8.0 km/h 14 mph /  22.5 km/h 59 % 0 in /  0.0 mm
14:47 61.5 °F /  16.4 °C 48.7 °F /  9.3 °C 29.6 in /  1001.2 hPa ESE 8 mph /  12.9 km/h 14 mph /  22.5 km/h 63 % 0 in /  0.0 mm
14:52 61.5 °F /  16.4 °C 47.5 °F /  8.6 °C 29.6 in /  1000.9 hPa SSE 4 mph /  6.4 km/h 12 mph /  19.3 km/h 60 % 0 in /  0.0 mm
15:02 61.7 °F /  16.5 °C 48.6 °F /  9.2 °C 29.6 in /  1000.9 hPa South 7 mph /  11.3 km/h 13 mph /  20.9 km/h 62 % 0 in /  0.0 mm
15:07 61.7 °F /  16.5 °C 48.2 °F /  9.0 °C 29.6 in /  1000.6 hPa SE 4 mph /  6.4 km/h 13 mph /  20.9 km/h 61 % 0 in /  0.0 mm
15:12 61.9 °F /  16.6 °C 47.8 °F /  8.8 °C 29.6 in /  1000.6 hPa SSE 7 mph /  11.3 km/h 15 mph /  24.1 km/h 60 % 0 in /  0.0 mm
15:17 61.9 °F /  16.6 °C 48.7 °F /  9.3 °C 29.6 in /  1000.6 hPa SSE 3 mph /  4.8 km/h 15 mph /  24.1 km/h 62 % 0 in /  0.0 mm
15:22 62.1 °F /  16.7 °C 48 °F /  8.9 °C 29.6 in /  1000.6 hPa ESE 8 mph /  12.9 km/h 15 mph /  24.1 km/h 60 % 0 in /  0.0 mm
15:27 62.1 °F /  16.7 °C 48.9 °F /  9.4 °C 29.6 in /  1000.6 hPa SSE 4 mph /  6.4 km/h 13 mph /  20.9 km/h 62 % 0 in /  0.0 mm
15:32 62.1 °F /  16.7 °C 48.9 °F /  9.4 °C 29.5 in /  1000.2 hPa SE 8 mph /  12.9 km/h 13 mph /  20.9 km/h 62 % 0 in /  0.0 mm
15:37 62.1 °F /  16.7 °C 49.3 °F /  9.6 °C 29.5 in /  1000.2 hPa SSE 9 mph /  14.5 km/h 13 mph /  20.9 km/h 63 % 0 in /  0.0 mm
15:42 62.2 °F /  16.8 °C 48.6 °F /  9.2 °C 29.5 in /  1000.2 hPa South 7 mph /  11.3 km/h 15 mph /  24.1 km/h 61 % 0 in /  0.0 mm
15:47 62.2 °F /  16.8 °C 49.5 °F /  9.7 °C 29.5 in /  1000.2 hPa SE 8 mph /  12.9 km/h 15 mph /  24.1 km/h 63 % 0 in /  0.0 mm
15:52 62.2 °F /  16.8 °C 49.1 °F /  9.5 °C 29.5 in /  1000.2 hPa SSE 4 mph /  6.4 km/h 15 mph /  24.1 km/h 62 % 0 in /  0.0 mm
16:02 61.9 °F /  16.6 °C 48.7 °F /  9.3 °C 29.5 in /  999.9 hPa SE 15 mph /  24.1 km/h 15 mph /  24.1 km/h 62 % 0 in /  0.0 mm
16:12 61.9 °F /  16.6 °C 49.1 °F /  9.5 °C 29.5 in /  999.5 hPa SE 8 mph /  12.9 km/h 16 mph /  25.7 km/h 63 % 0 in /  0.0 mm
16:17 61.9 °F /  16.6 °C 48.7 °F /  9.3 °C 29.5 in /  999.5 hPa SSE 4 mph /  6.4 km/h 16 mph /  25.7 km/h 62 % 0 in /  0.0 mm
16:22 61.9 °F /  16.6 °C 48.2 °F /  9.0 °C 29.5 in /  999.5 hPa SSE 7 mph /  11.3 km/h 17 mph /  27.4 km/h 61 % 0 in /  0.0 mm
16:32 61.5 °F /  16.4 °C 47.5 °F /  8.6 °C 29.5 in /  999.5 hPa SSE 8 mph /  12.9 km/h 15 mph /  24.1 km/h 60 % 0 in /  0.0 mm
16:37 61.3 °F /  16.3 °C 47.3 °F /  8.5 °C 29.5 in /  999.5 hPa SE 7 mph /  11.3 km/h 15 mph /  24.1 km/h 60 % 0 in /  0.0 mm
16:42 61.2 °F /  16.2 °C 47.7 °F /  8.7 °C 29.5 in /  999.2 hPa ESE 5 mph /  8.0 km/h 15 mph /  24.1 km/h 61 % 0 in /  0.0 mm
16:47 61 °F /  16.1 °C 47.8 °F /  8.8 °C 29.5 in /  999.2 hPa SW 6 mph /  9.7 km/h 15 mph /  24.1 km/h 62 % 0 in /  0.0 mm
16:52 61.2 °F /  16.2 °C 47.1 °F /  8.4 °C 29.5 in /  999.2 hPa SE 7 mph /  11.3 km/h 14 mph /  22.5 km/h 60 % 0 in /  0.0 mm
16:57 61 °F /  16.1 °C 47.8 °F /  8.8 °C 29.5 in /  999.2 hPa SE 7 mph /  11.3 km/h 19 mph /  30.6 km/h 62 % 0 in /  0.0 mm
17:02 60.6 °F /  15.9 °C 46.6 °F /  8.1 °C 29.5 in /  999.2 hPa SSE 4 mph /  6.4 km/h 19 mph /  30.6 km/h 60 % 0 in /  0.0 mm
17:07 60.6 °F /  15.9 °C 47.1 °F /  8.4 °C 29.5 in /  998.9 hPa SSE 4 mph /  6.4 km/h 19 mph /  30.6 km/h 61 % 0 in /  0.0 mm
17:12 60.4 °F /  15.8 °C 46.9 °F /  8.3 °C 29.5 in /  998.9 hPa SE 5 mph /  8.0 km/h 16 mph /  25.7 km/h 61 % 0 in /  0.0 mm
17:17 60.3 °F /  15.7 °C 47.1 °F /  8.4 °C 29.5 in /  998.9 hPa ENE 5 mph /  8.0 km/h 16 mph /  25.7 km/h 62 % 0 in /  0.0 mm
17:22 60.1 °F /  15.6 °C 46.9 °F /  8.3 °C 29.5 in /  998.5 hPa ESE 8 mph /  12.9 km/h 16 mph /  25.7 km/h 62 % 0 in /  0.0 mm
17:27 59.7 °F /  15.4 °C 47.1 °F /  8.4 °C 29.5 in /  998.5 hPa SSE 6 mph /  9.7 km/h 13 mph /  20.9 km/h 63 % 0 in /  0.0 mm
17:32 59.5 °F /  15.3 °C 46.9 °F /  8.3 °C 29.5 in /  998.5 hPa SE 3 mph /  4.8 km/h 11 mph /  17.7 km/h 63 % 0 in /  0.0 mm
17:42 59.4 °F /  15.2 °C 46.4 °F /  8.0 °C 29.5 in /  998.5 hPa East 6 mph /  9.7 km/h 14 mph /  22.5 km/h 62 % 0 in /  0.0 mm
17:47 59.2 °F /  15.1 °C 46.2 °F /  7.9 °C 29.5 in /  998.5 hPa SSE 7 mph /  11.3 km/h 14 mph /  22.5 km/h 62 % 0 in /  0.0 mm
17:52 59 °F /  15.0 °C 46.4 °F /  8.0 °C 29.5 in /  998.5 hPa SE 7 mph /  11.3 km/h 16 mph /  25.7 km/h 63 % 0 in /  0.0 mm
17:57 58.8 °F /  14.9 °C 46.2 °F /  7.9 °C 29.5 in /  998.2 hPa SSE 6 mph /  9.7 km/h 16 mph /  25.7 km/h 63 % 0 in /  0.0 mm
18:02 58.6 °F /  14.8 °C 46 °F /  7.8 °C 29.5 in /  998.2 hPa SE 5 mph /  8.0 km/h 13 mph /  20.9 km/h 63 % 0 in /  0.0 mm
18:07 58.3 °F /  14.6 °C 45.7 °F /  7.6 °C 29.5 in /  998.2 hPa ESE 10 mph /  16.1 km/h 13 mph /  20.9 km/h 63 % 0 in /  0.0 mm
18:12 58.3 °F /  14.6 °C 45.3 °F /  7.4 °C 29.5 in /  997.9 hPa ESE 9 mph /  14.5 km/h 11 mph /  17.7 km/h 62 % 0 in /  0.0 mm
18:17 58.3 °F /  14.6 °C 45.7 °F /  7.6 °C 29.5 in /  997.9 hPa ESE 4 mph /  6.4 km/h 15 mph /  24.1 km/h 63 % 0 in /  0.0 mm
18:22 57.9 °F /  14.4 °C 45.3 °F /  7.4 °C 29.5 in /  997.9 hPa ESE 7 mph /  11.3 km/h 15 mph /  24.1 km/h 63 % 0 in /  0.0 mm
18:27 57.7 °F /  14.3 °C 44.8 °F /  7.1 °C 29.5 in /  997.9 hPa SSE 7 mph /  11.3 km/h 13 mph /  20.9 km/h 62 % 0 in /  0.0 mm
18:32 57.7 °F /  14.3 °C 44.8 °F /  7.1 °C 29.5 in /  997.9 hPa SSE 7 mph /  11.3 km/h 13 mph /  20.9 km/h 62 % 0 in /  0.0 mm
18:42 57.2 °F /  14.0 °C 45.1 °F /  7.3 °C 29.5 in /  997.9 hPa SE 8 mph /  12.9 km/h 14 mph /  22.5 km/h 64 % 0 in /  0.0 mm
18:47 57.2 °F /  14.0 °C 45.1 °F /  7.3 °C 29.5 in /  997.9 hPa East 8 mph /  12.9 km/h 13 mph /  20.9 km/h 64 % 0 in /  0.0 mm
18:52 57 °F /  13.9 °C 45 °F /  7.2 °C 29.5 in /  997.9 hPa SE 5 mph /  8.0 km/h 12 mph /  19.3 km/h 64 % 0 in /  0.0 mm
19:02 56.7 °F /  13.7 °C 45.5 °F /  7.5 °C 29.5 in /  997.9 hPa SE 4 mph /  6.4 km/h 14 mph /  22.5 km/h 66 % 0 in /  0.0 mm
19:07 56.5 °F /  13.6 °C 45.3 °F /  7.4 °C 29.5 in /  997.9 hPa SSE 4 mph /  6.4 km/h 14 mph /  22.5 km/h 66 % 0 in /  0.0 mm
19:12 56.5 °F /  13.6 °C 45.3 °F /  7.4 °C 29.5 in /  997.9 hPa SE 10 mph /  16.1 km/h 14 mph /  22.5 km/h 66 % 0 in /  0.0 mm
19:22 56.1 °F /  13.4 °C 45 °F /  7.2 °C 29.5 in /  998.2 hPa SSE 3 mph /  4.8 km/h 14 mph /  22.5 km/h 66 % 0 in /  0.0 mm
19:27 55.9 °F /  13.3 °C 44.8 °F /  7.1 °C 29.5 in /  998.2 hPa SSW 5 mph /  8.0 km/h 12 mph /  19.3 km/h 66 % 0 in /  0.0 mm
19:32 56.1 °F /  13.4 °C 44.6 °F /  7.0 °C 29.5 in /  998.2 hPa SSE 4 mph /  6.4 km/h 13 mph /  20.9 km/h 65 % 0 in /  0.0 mm
19:37 55.9 °F /  13.3 °C 44.4 °F /  6.9 °C 29.5 in /  998.2 hPa SSE 3 mph /  4.8 km/h 13 mph /  20.9 km/h 65 % 0 in /  0.0 mm
19:42 55.9 °F /  13.3 °C 44.4 °F /  6.9 °C 29.5 in /  997.9 hPa SSE 5 mph /  8.0 km/h 13 mph /  20.9 km/h 65 % 0 in /  0.0 mm
19:47 55.8 °F /  13.2 °C 44.6 °F /  7.0 °C 29.5 in /  997.9 hPa SE 3 mph /  4.8 km/h 13 mph /  20.9 km/h 66 % 0 in /  0.0 mm
19:52 55.2 °F /  12.9 °C 44.1 °F /  6.7 °C 29.5 in /  997.9 hPa SSE 4 mph /  6.4 km/h 13 mph /  20.9 km/h 66 % 0 in /  0.0 mm
19:57 55.4 °F /  13.0 °C 44.2 °F /  6.8 °C 29.5 in /  997.9 hPa South 7 mph /  11.3 km/h 11 mph /  17.7 km/h 66 % 0 in /  0.0 mm
20:02 55.2 °F /  12.9 °C 43.7 °F /  6.5 °C 29.5 in /  997.9 hPa SSE 6 mph /  9.7 km/h 10 mph /  16.1 km/h 65 % 0 in /  0.0 mm
20:07 55.2 °F /  12.9 °C 43.7 °F /  6.5 °C 29.5 in /  997.9 hPa South 4 mph /  6.4 km/h 10 mph /  16.1 km/h 65 % 0 in /  0.0 mm
20:12 55.2 °F /  12.9 °C 44.1 °F /  6.7 °C 29.5 in /  997.9 hPa SE 8 mph /  12.9 km/h 10 mph /  16.1 km/h 66 % 0 in /  0.0 mm
20:17 55 °F /  12.8 °C 43.9 °F /  6.6 °C 29.5 in /  997.9 hPa SSE 10 mph /  16.1 km/h 12 mph /  19.3 km/h 66 % 0 in /  0.0 mm
20:22 55.2 °F /  12.9 °C 44.1 °F /  6.7 °C 29.5 in /  997.9 hPa SSE 11 mph /  17.7 km/h 12 mph /  19.3 km/h 66 % 0 in /  0.0 mm
20:27 55.2 °F /  12.9 °C 43.7 °F /  6.5 °C 29.5 in /  997.9 hPa South 3 mph /  4.8 km/h 15 mph /  24.1 km/h 65 % 0 in /  0.0 mm
20:32 55 °F /  12.8 °C 43.9 °F /  6.6 °C 29.5 in /  997.9 hPa SE 8 mph /  12.9 km/h 15 mph /  24.1 km/h 66 % 0 in /  0.0 mm
20:37 54.9 °F /  12.7 °C 43.7 °F /  6.5 °C 29.5 in /  997.9 hPa SE 5 mph /  8.0 km/h 12 mph /  19.3 km/h 66 % 0 in /  0.0 mm
20:42 54.7 °F /  12.6 °C 43.5 °F /  6.4 °C 29.5 in /  997.9 hPa SSE 5 mph /  8.0 km/h 11 mph /  17.7 km/h 66 % 0 in /  0.0 mm
20:47 54.5 °F /  12.5 °C 43.7 °F /  6.5 °C 29.5 in /  997.9 hPa SSE 5 mph /  8.0 km/h 9 mph /  14.5 km/h 67 % 0 in /  0.0 mm
20:52 54.5 °F /  12.5 °C 43.7 °F /  6.5 °C 29.5 in /  997.9 hPa SSE 3 mph /  4.8 km/h 11 mph /  17.7 km/h 67 % 0 in /  0.0 mm
20:57 54.3 °F /  12.4 °C 43.5 °F /  6.4 °C 29.5 in /  997.5 hPa ESE 3 mph /  4.8 km/h 11 mph /  17.7 km/h 67 % 0 in /  0.0 mm
21:02 54.5 °F /  12.5 °C 43.7 °F /  6.5 °C 29.5 in /  997.9 hPa South 3 mph /  4.8 km/h 12 mph /  19.3 km/h 67 % 0 in /  0.0 mm
21:07 54.5 °F /  12.5 °C 44.2 °F /  6.8 °C 29.5 in /  997.5 hPa South 6 mph /  9.7 km/h 12 mph /  19.3 km/h 68 % 0 in /  0.0 mm
21:12 54.5 °F /  12.5 °C 43.7 °F /  6.5 °C 29.5 in /  997.5 hPa SE 4 mph /  6.4 km/h 12 mph /  19.3 km/h 67 % 0 in /  0.0 mm
21:17 54.3 °F /  12.4 °C 44.1 °F /  6.7 °C 29.5 in /  997.5 hPa SE 5 mph /  8.0 km/h 13 mph /  20.9 km/h 68 % 0 in /  0.0 mm
21:22 54.3 °F /  12.4 °C 44.1 °F /  6.7 °C 29.5 in /  997.5 hPa South 5 mph /  8.0 km/h 13 mph /  20.9 km/h 68 % 0 in /  0.0 mm
21:27 54.3 °F /  12.4 °C 44.1 °F /  6.7 °C 29.5 in /  997.5 hPa SE 10 mph /  16.1 km/h 15 mph /  24.1 km/h 68 % 0 in /  0.0 mm
21:32 54.3 °F /  12.4 °C 44.1 °F /  6.7 °C 29.5 in /  997.5 hPa SE 6 mph /  9.7 km/h 15 mph /  24.1 km/h 68 % 0 in /  0.0 mm
21:37 54.3 °F /  12.4 °C 44.1 °F /  6.7 °C 29.5 in /  997.5 hPa SE 3 mph /  4.8 km/h 18 mph /  29.0 km/h 68 % 0 in /  0.0 mm
21:42 54.3 °F /  12.4 °C 44.1 °F /  6.7 °C 29.5 in /  997.5 hPa ESE 7 mph /  11.3 km/h 18 mph /  29.0 km/h 68 % 0 in /  0.0 mm
21:47 54.5 °F /  12.5 °C 43.7 °F /  6.5 °C 29.5 in /  997.5 hPa SE 5 mph /  8.0 km/h 18 mph /  29.0 km/h 67 % 0 in /  0.0 mm
21:52 54.3 °F /  12.4 °C 44.1 °F /  6.7 °C 29.5 in /  997.5 hPa SSW 6 mph /  9.7 km/h 17 mph /  27.4 km/h 68 % 0 in /  0.0 mm
21:57 54.3 °F /  12.4 °C 44.1 °F /  6.7 °C 29.5 in /  997.5 hPa SE 5 mph /  8.0 km/h 17 mph /  27.4 km/h 68 % 0 in /  0.0 mm
22:02 54.3 °F /  12.4 °C 43.5 °F /  6.4 °C 29.5 in /  997.5 hPa South 8 mph /  12.9 km/h 15 mph /  24.1 km/h 67 % 0 in /  0.0 mm
22:07 54.3 °F /  12.4 °C 43.5 °F /  6.4 °C 29.5 in /  997.5 hPa South 7 mph /  11.3 km/h 14 mph /  22.5 km/h 67 % 0 in /  0.0 mm
22:12 54.3 °F /  12.4 °C 43.5 °F /  6.4 °C 29.5 in /  997.5 hPa SE 5 mph /  8.0 km/h 17 mph /  27.4 km/h 67 % 0 in /  0.0 mm
22:17 54.3 °F /  12.4 °C 43.5 °F /  6.4 °C 29.5 in /  997.5 hPa SSE 3 mph /  4.8 km/h 17 mph /  27.4 km/h 67 % 0 in /  0.0 mm
22:22 54.3 °F /  12.4 °C 43.5 °F /  6.4 °C 29.5 in /  997.5 hPa SSE 3 mph /  4.8 km/h 17 mph /  27.4 km/h 67 % 0 in /  0.0 mm
22:27 54.1 °F /  12.3 °C 43.3 °F /  6.3 °C 29.5 in /  997.5 hPa SSE 7 mph /  11.3 km/h 16 mph /  25.7 km/h 67 % 0 in /  0.0 mm
22:32 54 °F /  12.2 °C 43.3 °F /  6.3 °C 29.5 in /  997.2 hPa ESE 7 mph /  11.3 km/h 12 mph /  19.3 km/h 67 % 0 in /  0.0 mm
22:37 54 °F /  12.2 °C 43.3 °F /  6.3 °C 29.5 in /  997.2 hPa SSE 4 mph /  6.4 km/h 11 mph /  17.7 km/h 67 % 0 in /  0.0 mm
22:42 53.8 °F /  12.1 °C 43.5 °F /  6.4 °C 29.5 in /  997.5 hPa SSE 5 mph /  8.0 km/h 12 mph /  19.3 km/h 68 % 0 in /  0.0 mm
22:47 53.8 °F /  12.1 °C 43.5 °F /  6.4 °C 29.5 in /  997.5 hPa South 7 mph /  11.3 km/h 12 mph /  19.3 km/h 68 % 0 in /  0.0 mm
22:52 53.8 °F /  12.1 °C 43.5 °F /  6.4 °C 29.5 in /  997.2 hPa ESE 5 mph /  8.0 km/h 12 mph /  19.3 km/h 68 % 0 in /  0.0 mm
22:57 54 °F /  12.2 °C 43.3 °F /  6.3 °C 29.5 in /  997.5 hPa SSE 4 mph /  6.4 km/h 12 mph /  19.3 km/h 67 % 0 in /  0.0 mm
23:02 54 °F /  12.2 °C 42.8 °F /  6.0 °C 29.5 in /  997.2 hPa SSE 4 mph /  6.4 km/h 12 mph /  19.3 km/h 66 % 0 in /  0.0 mm
23:07 53.8 °F /  12.1 °C 43.2 °F /  6.2 °C 29.5 in /  997.2 hPa SE 9 mph /  14.5 km/h 13 mph /  20.9 km/h 67 % 0 in /  0.0 mm
23:12 54 °F /  12.2 °C 43.3 °F /  6.3 °C 29.5 in /  997.2 hPa SE 5 mph /  8.0 km/h 15 mph /  24.1 km/h 67 % 0 in /  0.0 mm
23:17 53.8 °F /  12.1 °C 42.6 °F /  5.9 °C 29.5 in /  997.2 hPa ESE 9 mph /  14.5 km/h 16 mph /  25.7 km/h 66 % 0 in /  0.0 mm
23:22 53.8 °F /  12.1 °C 42.6 °F /  5.9 °C 29.5 in /  997.2 hPa SE 8 mph /  12.9 km/h 16 mph /  25.7 km/h 66 % 0 in /  0.0 mm
23:27 54 °F /  12.2 °C 42.8 °F /  6.0 °C 29.4 in /  996.8 hPa SE 8 mph /  12.9 km/h 14 mph /  22.5 km/h 66 % 0 in /  0.0 mm
23:32 54 °F /  12.2 °C 42.8 °F /  6.0 °C 29.5 in /  997.2 hPa SE 12 mph /  19.3 km/h 14 mph /  22.5 km/h 66 % 0 in /  0.0 mm
23:37 54 °F /  12.2 °C 42.8 °F /  6.0 °C 29.5 in /  997.2 hPa SSE 6 mph /  9.7 km/h 14 mph /  22.5 km/h 66 % 0 in /  0.0 mm
23:42 53.8 °F /  12.1 °C 42.6 °F /  5.9 °C 29.5 in /  997.2 hPa SSE 5 mph /  8.0 km/h 14 mph /  22.5 km/h 66 % 0 in /  0.0 mm
23:47 53.8 °F /  12.1 °C 42.6 °F /  5.9 °C 29.4 in /  996.8 hPa SE 4 mph /  6.4 km/h 14 mph /  22.5 km/h 66 % 0 in /  0.0 mm
23:52 53.8 °F /  12.1 °C 42.6 °F /  5.9 °C 29.4 in /  996.8 hPa SSE 10 mph /  16.1 km/h 13 mph /  20.9 km/h 66 % 0 in /  0.0 mm
Meteo18
Compliments of Weather Underground - 4 mb

Script developed by  Jim McMurry - jmcmurry@mwt.net Adapted for the template by  Wim van der Kuil - Leuven-Template.eu

You find our weather info also at:

European Weather Network

Weather Underground

Equipment we use:

Weather-station
Davis Vue

Weather-program
Meteohub

Weather-server
Raspberry PI 2 B+

Provider
1 and 1

Davis Vue

Meteohub

Raspberry PI 2 B+

1 and 1